sensor_id;sensor_type;location;lat;lon;timestamp;P1;durP1;ratioP1;P2;durP2;ratioP2
53867;SDS011;41577;47.470;19.080;2023-10-19T00:00:05;16.23;;;8.63;;
53867;SDS011;41577;47.470;19.080;2023-10-19T00:00:19;16.33;;;8.02;;
53867;SDS011;41577;47.470;19.080;2023-10-19T00:00:32;14.52;;;8.07;;
53867;SDS011;41577;47.470;19.080;2023-10-19T00:00:45;14.88;;;8.73;;
53867;SDS011;41577;47.470;19.080;2023-10-19T00:00:58;15.35;;;9.10;;
53867;SDS011;41577;47.470;19.080;2023-10-19T00:01:10;20.17;;;8.80;;
53867;SDS011;41577;47.470;19.080;2023-10-19T00:01:22;20.67;;;8.63;;
53867;SDS011;41577;47.470;19.080;2023-10-19T00:01:34;20.33;;;8.65;;
53867;SDS011;41577;47.470;19.080;2023-10-19T00:01:46;14.20;;;8.27;;
53867;SDS011;41577;47.470;19.080;2023-10-19T00:01:58;13.10;;;8.05;;
53867;SDS011;41577;47.470;19.080;2023-10-19T00:02:10;11.10;;;8.48;;
53867;SDS011;41577;47.470;19.080;2023-10-19T00:02:22;13.45;;;8.80;;
53867;SDS011;41577;47.470;19.080;2023-10-19T00:02:34;15.70;;;9.05;;
53867;SDS011;41577;47.470;19.080;2023-10-19T00:02:48;19.33;;;8.90;;
53867;SDS011;41577;47.470;19.080;2023-10-19T00:03:00;17.98;;;8.68;;
53867;SDS011;41577;47.470;19.080;2023-10-19T00:03:12;14.60;;;8.57;;
53867;SDS011;41577;47.470;19.080;2023-10-19T00:03:25;12.95;;;8.65;;
53867;SDS011;41577;47.470;19.080;2023-10-19T00:03:37;16.52;;;9.02;;
53867;SDS011;41577;47.470;19.080;2023-10-19T00:03:49;18.45;;;8.98;;
53867;SDS011;41577;47.470;19.080;2023-10-19T00:04:01;19.65;;;8.95;;
53867;SDS011;41577;47.470;19.080;2023-10-19T00:04:14;17.35;;;8.82;;
53867;SDS011;41577;47.470;19.080;2023-10-19T00:04:26;17.70;;;8.30;;
53867;SDS011;41577;47.470;19.080;2023-10-19T00:04:38;14.27;;;8.13;;
53867;SDS011;41577;47.470;19.080;2023-10-19T00:04:50;15.93;;;8.15;;
53867;SDS011;41577;47.470;19.080;2023-10-19T00:05:02;19.63;;;8.82;;
53867;SDS011;41577;47.470;19.080;2023-10-19T00:05:14;17.13;;;8.77;;
53867;SDS011;41577;47.470;19.080;2023-10-19T00:05:26;13.82;;;8.38;;
53867;SDS011;41577;47.470;19.080;2023-10-19T00:05:38;13.48;;;8.10;;
53867;SDS011;41577;47.470;19.080;2023-10-19T00:05:50;15.23;;;8.43;;
53867;SDS011;41577;47.470;19.080;2023-10-19T00:06:02;15.00;;;8.32;;
53867;SDS011;41577;47.470;19.080;2023-10-19T00:06:14;13.30;;;8.70;;
53867;SDS011;41577;47.470;19.080;2023-10-19T00:06:26;13.30;;;8.82;;
53867;SDS011;41577;47.470;19.080;2023-10-19T00:06:38;13.15;;;8.68;;
53867;SDS011;41577;47.470;19.080;2023-10-19T00:06:50;15.23;;;8.93;;
53867;SDS011;41577;47.470;19.080;2023-10-19T00:07:03;13.63;;;8.52;;
53867;SDS011;41577;47.470;19.080;2023-10-19T00:07:15;12.05;;;8.38;;
53867;SDS011;41577;47.470;19.080;2023-10-19T00:07:27;11.88;;;8.15;;
53867;SDS011;41577;47.470;19.080;2023-10-19T00:07:39;13.65;;;8.52;;
53867;SDS011;41577;47.470;19.080;2023-10-19T00:07:51;14.65;;;8.75;;
53867;SDS011;41577;47.470;19.080;2023-10-19T00:08:04;15.02;;;8.52;;
53867;SDS011;41577;47.470;19.080;2023-10-19T00:08:16;13.68;;;9.02;;
53867;SDS011;41577;47.470;19.080;2023-10-19T00:08:28;13.57;;;9.13;;
53867;SDS011;41577;47.470;19.080;2023-10-19T00:08:40;15.55;;;9.40;;
53867;SDS011;41577;47.470;19.080;2023-10-19T00:08:52;18.70;;;8.88;;
53867;SDS011;41577;47.470;19.080;2023-10-19T00:09:04;17.45;;;9.05;;
53867;SDS011;41577;47.470;19.080;2023-10-19T00:09:19;13.77;;;8.82;;
53867;SDS011;41577;47.470;19.080;2023-10-19T00:09:31;13.18;;;8.75;;
53867;SDS011;41577;47.470;19.080;2023-10-19T00:09:42;13.73;;;9.00;;
53867;SDS011;41577;47.470;19.080;2023-10-19T00:09:54;12.77;;;8.70;;
53867;SDS011;41577;47.470;19.080;2023-10-19T00:10:06;17.88;;;8.95;;
53867;SDS011;41577;47.470;19.080;2023-10-19T00:10:19;17.50;;;8.73;;
53867;SDS011;41577;47.470;19.080;2023-10-19T00:10:31;16.58;;;8.35;;
53867;SDS011;41577;47.470;19.080;2023-10-19T00:10:45;12.45;;;7.63;;
53867;SDS011;41577;47.470;19.080;2023-10-19T00:10:59;15.30;;;8.35;;
53867;SDS011;41577;47.470;19.080;2023-10-19T00:11:11;18.50;;;9.18;;
53867;SDS011;41577;47.470;19.080;2023-10-19T00:11:23;19.35;;;9.20;;
53867;SDS011;41577;47.470;19.080;2023-10-19T00:11:35;17.55;;;9.10;;
53867;SDS011;41577;47.470;19.080;2023-10-19T00:11:46;15.60;;;8.60;;
53867;SDS011;41577;47.470;19.080;2023-10-19T00:11:58;15.80;;;8.80;;
53867;SDS011;41577;47.470;19.080;2023-10-19T00:12:10;14.93;;;8.57;;
53867;SDS011;41577;47.470;19.080;2023-10-19T00:12:22;16.15;;;8.73;;
53867;SDS011;41577;47.470;19.080;2023-10-19T00:12:35;14.23;;;8.55;;
53867;SDS011;41577;47.470;19.080;2023-10-19T00:12:49;14.75;;;8.60;;
53867;SDS011;41577;47.470;19.080;2023-10-19T00:13:02;15.10;;;8.50;;
53867;SDS011;41577;47.470;19.080;2023-10-19T00:13:14;14.35;;;8.52;;
53867;SDS011;41577;47.470;19.080;2023-10-19T00:13:26;13.18;;;8.73;;
53867;SDS011;41577;47.470;19.080;2023-10-19T00:13:39;13.38;;;8.70;;
53867;SDS011;41577;47.470;19.080;2023-10-19T00:13:51;15.65;;;9.02;;
53867;SDS011;41577;47.470;19.080;2023-10-19T00:14:04;20.50;;;9.00;;
53867;SDS011;41577;47.470;19.080;2023-10-19T00:14:16;18.80;;;9.02;;
53867;SDS011;41577;47.470;19.080;2023-10-19T00:14:28;16.58;;;8.50;;
53867;SDS011;41577;47.470;19.080;2023-10-19T00:14:40;11.18;;;8.30;;
53867;SDS011;41577;47.470;19.080;2023-10-19T00:14:52;12.48;;;8.40;;
53867;SDS011;41577;47.470;19.080;2023-10-19T00:15:04;13.00;;;8.45;;
53867;SDS011;41577;47.470;19.080;2023-10-19T00:15:17;11.90;;;8.07;;
53867;SDS011;41577;47.470;19.080;2023-10-19T00:15:30;14.75;;;8.32;;
53867;SDS011;41577;47.470;19.080;2023-10-19T00:15:43;22.83;;;8.63;;
53867;SDS011;41577;47.470;19.080;2023-10-19T00:15:55;19.67;;;8.57;;
53867;SDS011;41577;47.470;19.080;2023-10-19T00:16:07;16.38;;;8.77;;
53867;SDS011;41577;47.470;19.080;2023-10-19T00:16:20;15.00;;;9.27;;
53867;SDS011;41577;47.470;19.080;2023-10-19T00:16:32;16.00;;;9.18;;
53867;SDS011;41577;47.470;19.080;2023-10-19T00:16:44;15.65;;;9.05;;
53867;SDS011;41577;47.470;19.080;2023-10-19T00:16:57;12.73;;;8.80;;
53867;SDS011;41577;47.470;19.080;2023-10-19T00:17:09;12.25;;;8.63;;
53867;SDS011;41577;47.470;19.080;2023-10-19T00:17:21;12.95;;;8.70;;
53867;SDS011;41577;47.470;19.080;2023-10-19T00:17:33;15.13;;;8.45;;
53867;SDS011;41577;47.470;19.080;2023-10-19T00:17:45;17.33;;;8.65;;
53867;SDS011;41577;47.470;19.080;2023-10-19T00:17:57;16.85;;;8.93;;
53867;SDS011;41577;47.470;19.080;2023-10-19T00:18:09;20.00;;;9.20;;
53867;SDS011;41577;47.470;19.080;2023-10-19T00:18:20;18.92;;;9.32;;
53867;SDS011;41577;47.470;19.080;2023-10-19T00:18:32;15.27;;;8.60;;
53867;SDS011;41577;47.470;19.080;2023-10-19T00:18:44;11.20;;;7.97;;
53867;SDS011;41577;47.470;19.080;2023-10-19T00:18:56;10.60;;;8.20;;
53867;SDS011;41577;47.470;19.080;2023-10-19T00:19:08;10.30;;;8.02;;
53867;SDS011;41577;47.470;19.080;2023-10-19T00:19:20;12.18;;;8.63;;
53867;SDS011;41577;47.470;19.080;2023-10-19T00:19:33;13.20;;;8.63;;
53867;SDS011;41577;47.470;19.080;2023-10-19T00:19:45;13.57;;;8.75;;
53867;SDS011;41577;47.470;19.080;2023-10-19T00:19:56;13.52;;;8.32;;
53867;SDS011;41577;47.470;19.080;2023-10-19T00:20:09;14.57;;;8.80;;
53867;SDS011;41577;47.470;19.080;2023-10-19T00:20:21;15.20;;;8.80;;
53867;SDS011;41577;47.470;19.080;2023-10-19T00:20:33;12.27;;;8.52;;
53867;SDS011;41577;47.470;19.080;2023-10-19T00:20:46;10.68;;;8.45;;
53867;SDS011;41577;47.470;19.080;2023-10-19T00:20:59;11.45;;;8.45;;
53867;SDS011;41577;47.470;19.080;2023-10-19T00:21:11;12.52;;;8.70;;
53867;SDS011;41577;47.470;19.080;2023-10-19T00:21:23;13.30;;;8.57;;
53867;SDS011;41577;47.470;19.080;2023-10-19T00:21:35;13.65;;;8.73;;
53867;SDS011;41577;47.470;19.080;2023-10-19T00:21:47;13.73;;;8.80;;
53867;SDS011;41577;47.470;19.080;2023-10-19T00:21:59;14.13;;;8.88;;
53867;SDS011;41577;47.470;19.080;2023-10-19T00:22:11;13.38;;;8.45;;
53867;SDS011;41577;47.470;19.080;2023-10-19T00:22:23;17.27;;;8.57;;
53867;SDS011;41577;47.470;19.080;2023-10-19T00:22:35;15.77;;;8.48;;
53867;SDS011;41577;47.470;19.080;2023-10-19T00:22:47;16.38;;;8.35;;
53867;SDS011;41577;47.470;19.080;2023-10-19T00:22:58;18.40;;;8.18;;
53867;SDS011;41577;47.470;19.080;2023-10-19T00:23:10;19.88;;;8.77;;
53867;SDS011;41577;47.470;19.080;2023-10-19T00:23:23;15.95;;;9.10;;
53867;SDS011;41577;47.470;19.080;2023-10-19T00:23:35;13.45;;;8.77;;
53867;SDS011;41577;47.470;19.080;2023-10-19T00:23:47;15.63;;;8.70;;
53867;SDS011;41577;47.470;19.080;2023-10-19T00:23:59;16.67;;;8.45;;
53867;SDS011;41577;47.470;19.080;2023-10-19T00:24:11;16.05;;;8.50;;
53867;SDS011;41577;47.470;19.080;2023-10-19T00:24:23;14.00;;;7.88;;
53867;SDS011;41577;47.470;19.080;2023-10-19T00:24:35;12.73;;;8.13;;
53867;SDS011;41577;47.470;19.080;2023-10-19T00:24:47;11.00;;;8.32;;
53867;SDS011;41577;47.470;19.080;2023-10-19T00:24:59;13.18;;;8.35;;
53867;SDS011;41577;47.470;19.080;2023-10-19T00:25:11;16.42;;;8.40;;
53867;SDS011;41577;47.470;19.080;2023-10-19T00:25:23;16.30;;;8.13;;
53867;SDS011;41577;47.470;19.080;2023-10-19T00:25:35;15.05;;;7.88;;
53867;SDS011;41577;47.470;19.080;2023-10-19T00:25:48;13.75;;;7.97;;
53867;SDS011;41577;47.470;19.080;2023-10-19T00:26:03;14.98;;;8.38;;
53867;SDS011;41577;47.470;19.080;2023-10-19T00:26:15;15.15;;;8.15;;
53867;SDS011;41577;47.470;19.080;2023-10-19T00:26:36;16.67;;;7.88;;
53867;SDS011;41577;47.470;19.080;2023-10-19T00:26:49;16.00;;;7.70;;
53867;SDS011;41577;47.470;19.080;2023-10-19T00:27:02;16.00;;;7.90;;
53867;SDS011;41577;47.470;19.080;2023-10-19T00:27:14;16.88;;;8.65;;
53867;SDS011;41577;47.470;19.080;2023-10-19T00:27:27;13.63;;;8.85;;
53867;SDS011;41577;47.470;19.080;2023-10-19T00:27:40;12.90;;;8.70;;
53867;SDS011;41577;47.470;19.080;2023-10-19T00:27:54;12.93;;;8.38;;
53867;SDS011;41577;47.470;19.080;2023-10-19T00:28:06;11.35;;;7.93;;
53867;SDS011;41577;47.470;19.080;2023-10-19T00:28:19;12.85;;;8.25;;
53867;SDS011;41577;47.470;19.080;2023-10-19T00:28:33;14.93;;;8.48;;
53867;SDS011;41577;47.470;19.080;2023-10-19T00:28:45;15.70;;;8.80;;
53867;SDS011;41577;47.470;19.080;2023-10-19T00:28:58;13.45;;;8.85;;
53867;SDS011;41577;47.470;19.080;2023-10-19T00:29:10;12.20;;;8.82;;
53867;SDS011;41577;47.470;19.080;2023-10-19T00:29:22;12.60;;;8.73;;
53867;SDS011;41577;47.470;19.080;2023-10-19T00:29:34;12.75;;;8.63;;
53867;SDS011;41577;47.470;19.080;2023-10-19T00:29:46;12.05;;;8.35;;
53867;SDS011;41577;47.470;19.080;2023-10-19T00:29:59;12.98;;;8.38;;
53867;SDS011;41577;47.470;19.080;2023-10-19T00:30:11;10.57;;;7.72;;
53867;SDS011;41577;47.470;19.080;2023-10-19T00:30:24;11.48;;;7.97;;
53867;SDS011;41577;47.470;19.080;2023-10-19T00:30:36;13.80;;;8.52;;
53867;SDS011;41577;47.470;19.080;2023-10-19T00:30:48;14.18;;;8.57;;
53867;SDS011;41577;47.470;19.080;2023-10-19T00:31:01;14.77;;;8.85;;
53867;SDS011;41577;47.470;19.080;2023-10-19T00:31:14;14.45;;;8.60;;
53867;SDS011;41577;47.470;19.080;2023-10-19T00:31:27;12.00;;;8.40;;
53867;SDS011;41577;47.470;19.080;2023-10-19T00:31:41;13.50;;;8.88;;
53867;SDS011;41577;47.470;19.080;2023-10-19T00:31:53;14.52;;;9.23;;
53867;SDS011;41577;47.470;19.080;2023-10-19T00:32:05;15.52;;;9.05;;
53867;SDS011;41577;47.470;19.080;2023-10-19T00:32:19;15.80;;;9.07;;
53867;SDS011;41577;47.470;19.080;2023-10-19T00:32:31;15.68;;;9.45;;
53867;SDS011;41577;47.470;19.080;2023-10-19T00:32:43;13.68;;;9.52;;
53867;SDS011;41577;47.470;19.080;2023-10-19T00:32:56;12.85;;;9.07;;
53867;SDS011;41577;47.470;19.080;2023-10-19T00:33:09;12.52;;;8.60;;
53867;SDS011;41577;47.470;19.080;2023-10-19T00:33:27;13.80;;;8.63;;
53867;SDS011;41577;47.470;19.080;2023-10-19T00:33:39;12.90;;;8.38;;
53867;SDS011;41577;47.470;19.080;2023-10-19T00:33:52;14.13;;;8.50;;
53867;SDS011;41577;47.470;19.080;2023-10-19T00:34:05;16.45;;;8.73;;
53867;SDS011;41577;47.470;19.080;2023-10-19T00:34:46;11.48;;;7.65;;
53867;SDS011;41577;47.470;19.080;2023-10-19T00:35:18;11.07;;;8.13;;
53867;SDS011;41577;47.470;19.080;2023-10-19T00:35:41;18.27;;;8.95;;
53867;SDS011;41577;47.470;19.080;2023-10-19T00:36:10;11.20;;;8.52;;
53867;SDS011;41577;47.470;19.080;2023-10-19T00:36:22;13.43;;;8.75;;
53867;SDS011;41577;47.470;19.080;2023-10-19T00:36:35;15.77;;;9.23;;
53867;SDS011;41577;47.470;19.080;2023-10-19T00:36:47;13.05;;;8.98;;
53867;SDS011;41577;47.470;19.080;2023-10-19T00:36:59;11.50;;;8.45;;
53867;SDS011;41577;47.470;19.080;2023-10-19T00:37:11;11.35;;;8.30;;
53867;SDS011;41577;47.470;19.080;2023-10-19T00:37:23;12.70;;;9.00;;
53867;SDS011;41577;47.470;19.080;2023-10-19T00:37:36;11.65;;;8.98;;
53867;SDS011;41577;47.470;19.080;2023-10-19T00:37:48;13.55;;;8.93;;
53867;SDS011;41577;47.470;19.080;2023-10-19T00:38:00;16.52;;;9.43;;
53867;SDS011;41577;47.470;19.080;2023-10-19T00:38:12;17.58;;;9.15;;
53867;SDS011;41577;47.470;19.080;2023-10-19T00:38:24;16.83;;;8.80;;
53867;SDS011;41577;47.470;19.080;2023-10-19T00:38:36;14.52;;;8.60;;
53867;SDS011;41577;47.470;19.080;2023-10-19T00:38:49;14.93;;;8.70;;
53867;SDS011;41577;47.470;19.080;2023-10-19T00:39:02;16.20;;;8.82;;
53867;SDS011;41577;47.470;19.080;2023-10-19T00:39:14;15.43;;;8.35;;
53867;SDS011;41577;47.470;19.080;2023-10-19T00:39:26;13.25;;;8.50;;
53867;SDS011;41577;47.470;19.080;2023-10-19T00:39:38;14.32;;;8.68;;
53867;SDS011;41577;47.470;19.080;2023-10-19T00:39:53;14.80;;;8.95;;
53867;SDS011;41577;47.470;19.080;2023-10-19T00:40:07;19.92;;;8.93;;
53867;SDS011;41577;47.470;19.080;2023-10-19T00:40:22;18.50;;;8.77;;
53867;SDS011;41577;47.470;19.080;2023-10-19T00:40:34;14.60;;;8.45;;
53867;SDS011;41577;47.470;19.080;2023-10-19T00:40:51;13.45;;;7.85;;
53867;SDS011;41577;47.470;19.080;2023-10-19T00:41:04;14.98;;;8.70;;
53867;SDS011;41577;47.470;19.080;2023-10-19T00:41:17;15.65;;;9.15;;
53867;SDS011;41577;47.470;19.080;2023-10-19T00:41:30;15.40;;;9.05;;
53867;SDS011;41577;47.470;19.080;2023-10-19T00:41:42;15.75;;;8.80;;
53867;SDS011;41577;47.470;19.080;2023-10-19T00:41:54;16.80;;;8.45;;
53867;SDS011;41577;47.470;19.080;2023-10-19T00:42:06;19.30;;;8.63;;
53867;SDS011;41577;47.470;19.080;2023-10-19T00:42:18;16.58;;;7.95;;
53867;SDS011;41577;47.470;19.080;2023-10-19T00:42:31;13.25;;;8.02;;
53867;SDS011;41577;47.470;19.080;2023-10-19T00:42:43;14.25;;;8.45;;
53867;SDS011;41577;47.470;19.080;2023-10-19T00:42:55;13.98;;;9.05;;
53867;SDS011;41577;47.470;19.080;2023-10-19T00:43:07;13.40;;;9.05;;
53867;SDS011;41577;47.470;19.080;2023-10-19T00:43:28;13.20;;;8.40;;
53867;SDS011;41577;47.470;19.080;2023-10-19T00:43:41;19.48;;;9.65;;
53867;SDS011;41577;47.470;19.080;2023-10-19T00:43:53;14.43;;;9.20;;
53867;SDS011;41577;47.470;19.080;2023-10-19T00:44:05;12.82;;;8.75;;
53867;SDS011;41577;47.470;19.080;2023-10-19T00:44:17;15.73;;;8.82;;
53867;SDS011;41577;47.470;19.080;2023-10-19T00:44:30;14.93;;;9.00;;
53867;SDS011;41577;47.470;19.080;2023-10-19T00:44:42;14.13;;;8.60;;
53867;SDS011;41577;47.470;19.080;2023-10-19T00:44:54;15.00;;;8.43;;
53867;SDS011;41577;47.470;19.080;2023-10-19T00:45:06;13.50;;;8.40;;
53867;SDS011;41577;47.470;19.080;2023-10-19T00:45:19;11.60;;;8.60;;
53867;SDS011;41577;47.470;19.080;2023-10-19T00:45:31;15.05;;;9.05;;
53867;SDS011;41577;47.470;19.080;2023-10-19T00:45:43;15.20;;;8.82;;
53867;SDS011;41577;47.470;19.080;2023-10-19T00:45:56;15.15;;;8.65;;
53867;SDS011;41577;47.470;19.080;2023-10-19T00:46:08;13.75;;;8.48;;
53867;SDS011;41577;47.470;19.080;2023-10-19T00:46:20;14.55;;;8.50;;
53867;SDS011;41577;47.470;19.080;2023-10-19T00:46:36;15.38;;;8.70;;
53867;SDS011;41577;47.470;19.080;2023-10-19T00:46:48;15.45;;;8.35;;
53867;SDS011;41577;47.470;19.080;2023-10-19T00:47:00;19.27;;;8.88;;
53867;SDS011;41577;47.470;19.080;2023-10-19T00:47:12;19.10;;;8.52;;
53867;SDS011;41577;47.470;19.080;2023-10-19T00:47:25;18.42;;;8.70;;
53867;SDS011;41577;47.470;19.080;2023-10-19T00:47:38;19.80;;;8.80;;
53867;SDS011;41577;47.470;19.080;2023-10-19T00:47:50;18.13;;;8.60;;
53867;SDS011;41577;47.470;19.080;2023-10-19T00:48:02;14.77;;;8.23;;
53867;SDS011;41577;47.470;19.080;2023-10-19T00:48:15;11.63;;;8.20;;
53867;SDS011;41577;47.470;19.080;2023-10-19T00:48:27;11.82;;;8.20;;
53867;SDS011;41577;47.470;19.080;2023-10-19T00:48:39;15.15;;;8.73;;
53867;SDS011;41577;47.470;19.080;2023-10-19T00:48:54;16.00;;;9.02;;
53867;SDS011;41577;47.470;19.080;2023-10-19T00:49:08;13.32;;;9.05;;
53867;SDS011;41577;47.470;19.080;2023-10-19T00:49:21;11.98;;;8.82;;
53867;SDS011;41577;47.470;19.080;2023-10-19T00:49:33;12.38;;;8.55;;
53867;SDS011;41577;47.470;19.080;2023-10-19T00:49:47;14.13;;;8.57;;
53867;SDS011;41577;47.470;19.080;2023-10-19T00:49:59;12.80;;;8.43;;
53867;SDS011;41577;47.470;19.080;2023-10-19T00:50:11;15.60;;;8.57;;
53867;SDS011;41577;47.470;19.080;2023-10-19T00:50:23;14.52;;;8.35;;
53867;SDS011;41577;47.470;19.080;2023-10-19T00:50:36;13.63;;;8.50;;
53867;SDS011;41577;47.470;19.080;2023-10-19T00:50:49;14.55;;;8.70;;
53867;SDS011;41577;47.470;19.080;2023-10-19T00:51:01;15.40;;;8.70;;
53867;SDS011;41577;47.470;19.080;2023-10-19T00:51:16;13.50;;;8.25;;
53867;SDS011;41577;47.470;19.080;2023-10-19T00:51:29;10.55;;;7.97;;
53867;SDS011;41577;47.470;19.080;2023-10-19T00:51:45;11.23;;;8.27;;
53867;SDS011;41577;47.470;19.080;2023-10-19T00:52:00;13.25;;;8.45;;
53867;SDS011;41577;47.470;19.080;2023-10-19T00:52:13;14.30;;;8.40;;
53867;SDS011;41577;47.470;19.080;2023-10-19T00:52:26;15.82;;;8.82;;
53867;SDS011;41577;47.470;19.080;2023-10-19T00:52:38;17.33;;;8.82;;
53867;SDS011;41577;47.470;19.080;2023-10-19T00:52:50;15.40;;;8.82;;
53867;SDS011;41577;47.470;19.080;2023-10-19T00:53:03;14.95;;;9.02;;
53867;SDS011;41577;47.470;19.080;2023-10-19T00:53:15;12.90;;;9.02;;
53867;SDS011;41577;47.470;19.080;2023-10-19T00:53:28;14.07;;;8.95;;
53867;SDS011;41577;47.470;19.080;2023-10-19T00:53:40;15.32;;;9.50;;
53867;SDS011;41577;47.470;19.080;2023-10-19T00:53:53;15.25;;;9.60;;
53867;SDS011;41577;47.470;19.080;2023-10-19T00:54:08;13.40;;;8.77;;
53867;SDS011;41577;47.470;19.080;2023-10-19T00:54:23;14.48;;;8.68;;
53867;SDS011;41577;47.470;19.080;2023-10-19T00:54:39;16.55;;;8.65;;
53867;SDS011;41577;47.470;19.080;2023-10-19T00:54:53;13.18;;;8.35;;
53867;SDS011;41577;47.470;19.080;2023-10-19T00:55:05;12.50;;;8.52;;
53867;SDS011;41577;47.470;19.080;2023-10-19T00:55:18;12.07;;;8.75;;
53867;SDS011;41577;47.470;19.080;2023-10-19T00:55:30;13.55;;;8.75;;
53867;SDS011;41577;47.470;19.080;2023-10-19T00:55:42;13.25;;;8.73;;
53867;SDS011;41577;47.470;19.080;2023-10-19T00:55:56;15.85;;;9.40;;
53867;SDS011;41577;47.470;19.080;2023-10-19T00:56:08;15.98;;;9.27;;
53867;SDS011;41577;47.470;19.080;2023-10-19T00:56:21;13.93;;;8.82;;
53867;SDS011;41577;47.470;19.080;2023-10-19T00:56:34;14.52;;;8.65;;
53867;SDS011;41577;47.470;19.080;2023-10-19T00:56:47;15.57;;;8.98;;
53867;SDS011;41577;47.470;19.080;2023-10-19T00:56:59;17.70;;;8.77;;
53867;SDS011;41577;47.470;19.080;2023-10-19T00:57:12;18.85;;;8.63;;
53867;SDS011;41577;47.470;19.080;2023-10-19T00:57:24;18.52;;;8.60;;
53867;SDS011;41577;47.470;19.080;2023-10-19T00:57:37;19.92;;;8.63;;
53867;SDS011;41577;47.470;19.080;2023-10-19T00:57:51;18.80;;;9.10;;
53867;SDS011;41577;47.470;19.080;2023-10-19T00:58:04;21.45;;;9.73;;
53867;SDS011;41577;47.470;19.080;2023-10-19T00:58:16;22.15;;;9.90;;
53867;SDS011;41577;47.470;19.080;2023-10-19T00:58:29;17.48;;;9.00;;
53867;SDS011;41577;47.470;19.080;2023-10-19T00:58:41;12.25;;;8.52;;
53867;SDS011;41577;47.470;19.080;2023-10-19T00:58:53;13.70;;;8.95;;
53867;SDS011;41577;47.470;19.080;2023-10-19T00:59:05;12.50;;;8.63;;
53867;SDS011;41577;47.470;19.080;2023-10-19T00:59:18;13.23;;;8.93;;
53867;SDS011;41577;47.470;19.080;2023-10-19T00:59:31;13.45;;;9.27;;
53867;SDS011;41577;47.470;19.080;2023-10-19T00:59:43;14.63;;;9.40;;
53867;SDS011;41577;47.470;19.080;2023-10-19T00:59:55;14.95;;;9.02;;
53867;SDS011;41577;47.470;19.080;2023-10-19T01:00:08;18.40;;;8.77;;
53867;SDS011;41577;47.470;19.080;2023-10-19T01:00:20;20.08;;;8.57;;
53867;SDS011;41577;47.470;19.080;2023-10-19T01:00:32;18.95;;;8.63;;
53867;SDS011;41577;47.470;19.080;2023-10-19T01:00:44;15.77;;;8.93;;
53867;SDS011;41577;47.470;19.080;2023-10-19T01:00:56;18.38;;;9.20;;
53867;SDS011;41577;47.470;19.080;2023-10-19T01:01:08;17.95;;;8.95;;
53867;SDS011;41577;47.470;19.080;2023-10-19T01:01:21;18.38;;;9.27;;
53867;SDS011;41577;47.470;19.080;2023-10-19T01:01:36;14.15;;;8.85;;
53867;SDS011;41577;47.470;19.080;2023-10-19T01:01:51;12.07;;;7.93;;
53867;SDS011;41577;47.470;19.080;2023-10-19T01:02:04;13.48;;;8.45;;
53867;SDS011;41577;47.470;19.080;2023-10-19T01:02:16;13.57;;;8.93;;
53867;SDS011;41577;47.470;19.080;2023-10-19T01:02:28;16.50;;;8.95;;
53867;SDS011;41577;47.470;19.080;2023-10-19T01:02:41;16.52;;;8.52;;
53867;SDS011;41577;47.470;19.080;2023-10-19T01:02:54;14.70;;;8.88;;
53867;SDS011;41577;47.470;19.080;2023-10-19T01:03:06;14.63;;;9.00;;
53867;SDS011;41577;47.470;19.080;2023-10-19T01:03:19;14.40;;;9.15;;
53867;SDS011;41577;47.470;19.080;2023-10-19T01:03:31;15.18;;;9.43;;
53867;SDS011;41577;47.470;19.080;2023-10-19T01:03:44;16.45;;;9.63;;
53867;SDS011;41577;47.470;19.080;2023-10-19T01:03:56;16.05;;;9.52;;
53867;SDS011;41577;47.470;19.080;2023-10-19T01:04:08;17.38;;;10.07;;
53867;SDS011;41577;47.470;19.080;2023-10-19T01:04:21;16.85;;;9.77;;
53867;SDS011;41577;47.470;19.080;2023-10-19T01:04:34;14.70;;;9.48;;
53867;SDS011;41577;47.470;19.080;2023-10-19T01:04:47;16.33;;;9.27;;
53867;SDS011;41577;47.470;19.080;2023-10-19T01:05:00;14.82;;;8.98;;
53867;SDS011;41577;47.470;19.080;2023-10-19T01:05:12;15.55;;;8.70;;
53867;SDS011;41577;47.470;19.080;2023-10-19T01:05:24;16.13;;;8.80;;
53867;SDS011;41577;47.470;19.080;2023-10-19T01:05:36;16.17;;;9.10;;
53867;SDS011;41577;47.470;19.080;2023-10-19T01:05:51;15.07;;;9.05;;
53867;SDS011;41577;47.470;19.080;2023-10-19T01:06:03;14.55;;;8.52;;
53867;SDS011;41577;47.470;19.080;2023-10-19T01:06:17;11.13;;;7.80;;
53867;SDS011;41577;47.470;19.080;2023-10-19T01:06:29;10.60;;;7.90;;
53867;SDS011;41577;47.470;19.080;2023-10-19T01:06:41;11.70;;;8.32;;
53867;SDS011;41577;47.470;19.080;2023-10-19T01:06:54;12.02;;;8.48;;
53867;SDS011;41577;47.470;19.080;2023-10-19T01:07:06;14.52;;;8.90;;
53867;SDS011;41577;47.470;19.080;2023-10-19T01:07:19;17.13;;;9.38;;
53867;SDS011;41577;47.470;19.080;2023-10-19T01:07:31;16.48;;;9.00;;
53867;SDS011;41577;47.470;19.080;2023-10-19T01:07:44;16.80;;;8.68;;
53867;SDS011;41577;47.470;19.080;2023-10-19T01:07:56;15.52;;;8.55;;
53867;SDS011;41577;47.470;19.080;2023-10-19T01:08:08;14.13;;;8.60;;
53867;SDS011;41577;47.470;19.080;2023-10-19T01:08:20;12.02;;;8.43;;
53867;SDS011;41577;47.470;19.080;2023-10-19T01:08:32;15.52;;;9.00;;
53867;SDS011;41577;47.470;19.080;2023-10-19T01:08:44;17.58;;;9.32;;
53867;SDS011;41577;47.470;19.080;2023-10-19T01:08:56;18.52;;;9.25;;
53867;SDS011;41577;47.470;19.080;2023-10-19T01:09:08;15.65;;;8.98;;
53867;SDS011;41577;47.470;19.080;2023-10-19T01:09:20;14.55;;;8.95;;
53867;SDS011;41577;47.470;19.080;2023-10-19T01:09:32;12.90;;;9.18;;
53867;SDS011;41577;47.470;19.080;2023-10-19T01:09:44;12.82;;;9.15;;
53867;SDS011;41577;47.470;19.080;2023-10-19T01:09:57;12.73;;;8.73;;
53867;SDS011;41577;47.470;19.080;2023-10-19T01:10:10;11.50;;;8.65;;
53867;SDS011;41577;47.470;19.080;2023-10-19T01:10:22;12.27;;;8.73;;
53867;SDS011;41577;47.470;19.080;2023-10-19T01:10:35;17.77;;;9.10;;
53867;SDS011;41577;47.470;19.080;2023-10-19T01:10:47;18.90;;;8.77;;
53867;SDS011;41577;47.470;19.080;2023-10-19T01:11:01;19.38;;;8.68;;
53867;SDS011;41577;47.470;19.080;2023-10-19T01:11:13;17.55;;;8.73;;
53867;SDS011;41577;47.470;19.080;2023-10-19T01:11:25;14.40;;;8.77;;
53867;SDS011;41577;47.470;19.080;2023-10-19T01:11:37;17.00;;;9.32;;
53867;SDS011;41577;47.470;19.080;2023-10-19T01:11:49;21.00;;;9.80;;
53867;SDS011;41577;47.470;19.080;2023-10-19T01:12:01;19.00;;;9.95;;
53867;SDS011;41577;47.470;19.080;2023-10-19T01:12:13;16.70;;;9.98;;
53867;SDS011;41577;47.470;19.080;2023-10-19T01:12:25;14.60;;;9.60;;
53867;SDS011;41577;47.470;19.080;2023-10-19T01:12:38;13.45;;;9.38;;
53867;SDS011;41577;47.470;19.080;2023-10-19T01:12:51;14.55;;;9.77;;
53867;SDS011;41577;47.470;19.080;2023-10-19T01:13:03;13.93;;;9.30;;
53867;SDS011;41577;47.470;19.080;2023-10-19T01:13:15;12.70;;;9.05;;
53867;SDS011;41577;47.470;19.080;2023-10-19T01:13:27;12.95;;;9.45;;
53867;SDS011;41577;47.470;19.080;2023-10-19T01:13:39;12.43;;;9.52;;
53867;SDS011;41577;47.470;19.080;2023-10-19T01:13:51;13.93;;;10.00;;
53867;SDS011;41577;47.470;19.080;2023-10-19T01:14:17;14.77;;;9.85;;
53867;SDS011;41577;47.470;19.080;2023-10-19T01:14:29;15.50;;;8.85;;
53867;SDS011;41577;47.470;19.080;2023-10-19T01:14:43;17.50;;;9.00;;
53867;SDS011;41577;47.470;19.080;2023-10-19T01:15:02;19.10;;;9.85;;